Time;durP1;ratioP1;P1;durP2;ratioP2;P2;SDS_P1;SDS_P2;PMS_P1;PMS_P2;Temp;Humidity;BMP_temperature;BMP_pressure;BME280_temperature;BME280_humidity;BME280_pressure;Samples;Min_cycle;Max_cycle;Signal;HPM_P1;HPM_P2
2023/04/23 00:00:24;;;;;;;;;;;;;;;16.60;43.14;100291.16;4103477;28;20033;-66
2023/04/23 00:02:26;;;;;;;;;;;;;;;16.54;43.21;100290.16;4072162;29;20022;-67
2023/04/23 00:04:32;;;;;;;;;;;;;;;16.51;43.30;100287.91;4104211;28;19970;-66
2023/04/23 00:06:35;;;;;;;;;;;;;;;16.48;43.63;100288.34;4103543;28;19934;-67
2023/04/23 00:08:38;;;;;;;;;;;;;;;16.52;43.42;100284.13;4103323;28;20020;-67
2023/04/23 00:10:40;;;;;;;;;;;;;;;16.52;43.59;100283.28;4104187;28;19985;-67
2023/04/23 00:12:42;;;;;;;;;;;;;;;16.50;43.82;100286.22;4103862;28;20012;-67
2023/04/23 00:14:45;;;;;;;;;;;;;;;16.50;43.83;100285.41;4103659;28;19936;-67
2023/04/23 00:16:47;;;;;;;;;;;;;;;16.49;43.87;100286.44;4103608;28;20017;-67
2023/04/23 00:18:51;;;;;;;;;;;;;;;16.50;44.08;100279.94;4103987;28;20034;-67
2023/04/23 00:20:54;;;;;;;;;;;;;;;16.49;44.28;100279.13;4086899;28;20043;-68
2023/04/23 00:22:56;;;;;;;;;;;;;;;16.46;44.36;100268.69;4104427;28;20072;-67
2023/04/23 00:24:58;;;;;;;;;;;;;;;16.41;44.40;100279.44;4103686;28;20029;-67
2023/04/23 00:27:00;;;;;;;;;;;;;;;16.40;44.18;100269.59;4101308;28;20037;-68
2023/04/23 00:29:02;;;;;;;;;;;;;;;16.35;44.13;100272.97;4087734;28;20495;-68
2023/04/23 00:31:06;;;;;;;;;;;;;;;16.32;44.30;100270.72;4103043;28;20045;-68
2023/04/23 00:33:09;;;;;;;;;;;;;;;16.31;44.70;100277.22;4102849;28;20423;-68
2023/04/23 00:35:11;;;;;;;;;;;;;;;16.32;44.21;100270.72;4103612;28;19930;-67
2023/04/23 00:37:15;;;;;;;;;;;;;;;16.30;44.32;100272.84;4103876;28;20025;-67
2023/04/23 00:39:17;;;;;;;;;;;;;;;16.28;44.74;100269.50;4086708;28;20017;-67
2023/04/23 00:41:20;;;;;;;;;;;;;;;16.29;44.94;100268.44;4090117;29;20025;-68
2023/04/23 00:43:22;;;;;;;;;;;;;;;16.28;44.61;100268.66;4105394;28;20029;-67
2023/04/23 00:45:25;;;;;;;;;;;;;;;16.24;44.76;100265.56;4090344;29;20364;-68
2023/04/23 00:47:27;;;;;;;;;;;;;;;16.19;45.08;100266.25;4089772;29;20033;-68
2023/04/23 00:49:29;;;;;;;;;;;;;;;16.16;44.99;100263.13;4106990;28;20025;-67
2023/04/23 00:51:32;;;;;;;;;;;;;;;16.13;45.09;100250.78;4090202;28;20449;-68
2023/04/23 00:53:35;;;;;;;;;;;;;;;16.18;45.42;100256.41;4106733;28;20013;-67
2023/04/23 00:55:37;;;;;;;;;;;;;;;16.19;45.41;100263.53;4106566;28;19933;-67
2023/04/23 00:57:39;;;;;;;;;;;;;;;16.12;45.56;100259.19;4107567;28;20416;-67
2023/04/23 00:59:44;;;;;;;;;;;;;;;16.10;45.32;100258.59;4091164;28;20028;-67
2023/04/23 01:01:49;;;;;;;;;;;;;;;16.08;45.98;100255.25;4086509;29;20305;-68
2023/04/23 01:03:52;;;;;;;;;;;;;;;16.10;45.79;100262.16;4107377;28;19934;-68
2023/04/23 01:05:54;;;;;;;;;;;;;;;16.10;45.50;100258.59;4107637;28;20024;-68
2023/04/23 01:07:56;;;;;;;;;;;;;;;16.08;45.71;100258.81;4090890;28;20025;-68
2023/04/23 01:10:02;;;;;;;;;;;;;;;16.05;45.80;100248.38;4106956;28;20021;-68
2023/04/23 01:12:05;;;;;;;;;;;;;;;16.04;46.04;100250.25;4090018;29;20018;-67
2023/04/23 01:14:07;;;;;;;;;;;;;;;16.02;46.05;100254.28;4089944;29;20021;-67
2023/04/23 01:16:12;;;;;;;;;;;;;;;15.99;46.11;100249.28;4090384;29;19934;-66
2023/04/23 01:18:14;;;;;;;;;;;;;;;15.98;46.37;100255.78;4106926;28;20021;-67
2023/04/23 01:20:16;;;;;;;;;;;;;;;15.96;46.31;100260.63;4106253;28;20089;-67
2023/04/23 01:22:20;;;;;;;;;;;;;;;15.93;46.52;100256.44;4073204;29;20394;-67
2023/04/23 01:24:23;;;;;;;;;;;;;;;15.89;46.71;100254.38;4105741;28;20374;-67
2023/04/23 01:26:25;;;;;;;;;;;;;;;15.89;46.83;100259.84;4104828;28;20012;-68
2023/04/23 01:28:27;;;;;;;;;;;;;;;15.85;46.83;100260.28;4106263;28;20477;-67
2023/04/23 01:30:35;;;;;;;;;;;;;;;15.84;47.12;100258.59;4089381;28;20017;-66
2023/04/23 01:32:37;;;;;;;;;;;;;;;15.83;47.15;100256.97;4106226;28;20578;-68
2023/04/23 01:34:39;;;;;;;;;;;;;;;15.85;47.10;100249.38;4106129;28;20049;-67
2023/04/23 01:36:41;;;;;;;;;;;;;;;15.84;47.15;100255.06;4105952;28;19966;-67
2023/04/23 01:38:45;;;;;;;;;;;;;;;15.88;47.18;100253.56;4105208;28;20014;-68
2023/04/23 01:40:47;;;;;;;;;;;;;;;15.87;47.43;100256.50;4106201;28;20369;-68
2023/04/23 01:42:49;;;;;;;;;;;;;;;15.86;47.47;100252.94;4106233;28;20013;-67
2023/04/23 01:44:51;;;;;;;;;;;;;;;15.85;47.64;100249.38;4106168;28;20017;-68
2023/04/23 01:46:53;;;;;;;;;;;;;;;15.82;47.72;100254.47;4088432;28;20029;-67
2023/04/23 01:48:55;;;;;;;;;;;;;;;15.76;48.00;100253.41;4105187;28;20094;-67
2023/04/23 01:50:57;;;;;;;;;;;;;;;15.74;47.91;100252.81;4088846;28;20049;-67
2023/04/23 01:52:59;;;;;;;;;;;;;;;15.73;48.00;100250.31;4105484;28;20436;-68
2023/04/23 01:55:02;;;;;;;;;;;;;;;15.71;48.03;100238.81;4106105;28;20033;-68
2023/04/23 01:57:04;;;;;;;;;;;;;;;15.70;48.41;100237.16;4106551;28;20033;-68
2023/04/23 01:59:07;;;;;;;;;;;;;;;15.67;48.18;100239.28;4087514;28;20663;-68
2023/04/23 02:01:10;;;;;;;;;;;;;;;15.67;48.52;100233.81;4088182;29;20029;-68
2023/04/23 02:03:12;;;;;;;;;;;;;;;15.66;48.31;100232.16;4105923;28;20856;-68
2023/04/23 02:05:17;;;;;;;;;;;;;;;15.65;48.66;100240.53;4072940;29;20014;-68
2023/04/23 02:07:19;;;;;;;;;;;;;;;15.64;48.86;100238.88;4073864;29;20384;-68
2023/04/23 02:09:21;;;;;;;;;;;;;;;15.65;48.72;100235.09;4073012;29;20410;-68
2023/04/23 02:11:25;;;;;;;;;;;;;;;15.66;49.12;100228.59;4105611;28;20523;-68
2023/04/23 02:13:28;;;;;;;;;;;;;;;15.67;49.22;100230.25;4105882;28;20448;-68
2023/04/23 02:15:31;;;;;;;;;;;;;;;15.70;49.28;100221.63;4072640;29;20009;-68
2023/04/23 02:17:33;;;;;;;;;;;;;;;15.73;49.52;100223.09;4105187;28;19930;-67
2023/04/23 02:19:38;;;;;;;;;;;;;;;15.73;49.76;100218.47;4072646;29;20018;-67
2023/04/23 02:21:40;;;;;;;;;;;;;;;15.74;49.56;100224.78;4105807;28;19938;-67
2023/04/23 02:23:42;;;;;;;;;;;;;;;15.71;49.84;100214.31;4088245;28;19938;-67
2023/04/23 02:25:44;;;;;;;;;;;;;;;15.70;50.28;100215.38;4105163;28;20016;-67
2023/04/23 02:27:48;;;;;;;;;;;;;;;15.73;51.03;100225.81;4105535;28;20021;-67
2023/04/23 02:29:50;;;;;;;;;;;;;;;15.71;51.81;100233.38;4104740;28;20028;-66
2023/04/23 02:31:52;;;;;;;;;;;;;;;15.66;51.58;100226.72;4071351;29;20022;-68
2023/04/23 02:33:57;;;;;;;;;;;;;;;15.65;52.91;100235.91;4105458;28;20448;-67
2023/04/23 02:35:59;;;;;;;;;;;;;;;15.59;54.78;100246.88;4104651;28;20476;-66
2023/04/23 02:38:01;;;;;;;;;;;;;;;15.54;55.19;100233.94;4105200;28;20456;-69
2023/04/23 02:40:03;;;;;;;;;;;;;;;15.54;55.59;100222.22;4105584;28;20449;-67
2023/04/23 02:42:06;;;;;;;;;;;;;;;15.55;55.82;100226.59;4088125;29;20473;-68
2023/04/23 02:44:11;;;;;;;;;;;;;;;15.55;57.53;100234.75;4105787;28;20452;-67
2023/04/23 02:46:13;;;;;;;;;;;;;;;15.48;57.49;100216.59;4087741;29;20018;-67
2023/04/23 02:48:16;;;;;;;;;;;;;;;15.46;57.43;100209.72;4072695;29;20013;-67
2023/04/23 02:50:19;;;;;;;;;;;;;;;15.48;57.95;100223.94;4087591;28;20014;-67
2023/04/23 02:52:23;;;;;;;;;;;;;;;15.52;59.09;100216.16;4103297;28;20026;-67
2023/04/23 02:54:25;;;;;;;;;;;;;;;15.53;59.76;100220.53;4102808;28;19933;-69
2023/04/23 02:56:27;;;;;;;;;;;;;;;15.46;61.10;100226.06;4087827;28;20018;-68
2023/04/23 02:58:30;;;;;;;;;;;;;;;15.38;61.19;100221.72;4103793;28;20369;-68
2023/04/23 03:00:35;;;;;;;;;;;;;;;15.32;60.55;100217.97;4088631;28;20035;-68
2023/04/23 03:02:37;;;;;;;;;;;;;;;15.29;60.63;100221.13;4101501;28;20711;-68
2023/04/23 03:04:39;;;;;;;;;;;;;;;15.28;61.12;100224.94;4103551;28;20488;-68
2023/04/23 03:06:41;;;;;;;;;;;;;;;15.30;61.30;100232.88;4087276;29;20026;-68
2023/04/23 03:08:44;;;;;;;;;;;;;;;15.23;62.07;100232.06;4088538;29;20025;-69
2023/04/23 03:10:47;;;;;;;;;;;;;;;15.20;62.19;100236.06;4087776;28;19931;-68
2023/04/23 03:12:56;;;;;;;;;;;;;;;15.16;61.58;100234.84;4088195;29;19934;-68
2023/04/23 03:15:03;;;;;;;;;;;;;;;15.13;61.12;100229.84;4073042;29;20397;-68
2023/04/23 03:17:13;;;;;;;;;;;;;;;15.09;61.08;100221.31;4088383;28;20106;-68
2023/04/23 03:19:16;;;;;;;;;;;;;;;15.11;61.35;100224.63;4087696;28;20073;-67
2023/04/23 03:21:20;;;;;;;;;;;;;;;15.17;62.01;100212.03;4104712;28;19934;-67
2023/04/23 03:23:22;;;;;;;;;;;;;;;15.19;62.18;100215.38;4087428;29;20018;-68
2023/04/23 03:25:25;;;;;;;;;;;;;;;15.23;62.23;100215.75;4103054;28;20017;-68
2023/04/23 03:27:27;;;;;;;;;;;;;;;15.22;62.95;100209.50;4088123;29;20021;-69
2023/04/23 03:29:30;;;;;;;;;;;;;;;15.14;65.77;100210.59;4073555;29;20516;-68
2023/04/23 03:31:33;;;;;;;;;;;;;;;15.08;66.78;100210.66;4101960;28;20493;-68
2023/04/23 03:33:36;;;;;;;;;;;;;;;15.05;65.59;100211.09;4071465;29;20034;-68
2023/04/23 03:35:39;;;;;;;;;;;;;;;15.03;65.53;100211.31;4102298;28;20012;-68
2023/04/23 03:37:46;;;;;;;;;;;;;;;15.06;65.19;100196.41;4102910;28;19958;-68
2023/04/23 03:39:51;;;;;;;;;;;;;;;15.09;65.14;100199.56;4055317;29;20436;-68
2023/04/23 03:41:56;;;;;;;;;;;;;;;15.12;65.34;100192.81;4088228;29;20009;-68
2023/04/23 03:44:03;;;;;;;;;;;;;;;15.13;65.64;100189.06;4105310;28;20017;-68
2023/04/23 03:46:25;;;;;;;;;;;;;;;15.13;66.07;100183.63;4087688;29;20409;-69
2023/04/23 03:48:27;;;;;;;;;;;;;;;15.12;66.26;100184.66;4087863;29;20025;-67
2023/04/23 03:50:37;;;;;;;;;;;;;;;15.12;66.23;100185.50;4088831;28;20029;-68
2023/04/23 03:52:47;;;;;;;;;;;;;;;15.13;66.63;100189.88;4087368;28;20306;-68
2023/04/23 03:55:07;;;;;;;;;;;;;;;15.17;66.67;100181.28;4103277;28;19969;-68
2023/04/23 03:57:16;;;;;;;;;;;;;;;15.20;66.86;100189.00;4071326;29;19927;-68
2023/04/23 03:59:32;;;;;;;;;;;;;;;15.20;67.06;100180.84;4103050;28;20033;-68
2023/04/23 04:01:35;;;;;;;;;;;;;;;15.22;67.43;100181.44;4087591;29;20393;-68
2023/04/23 04:03:38;;;;;;;;;;;;;;;15.18;68.63;100186.50;4103023;28;20068;-68
2023/04/23 04:05:44;;;;;;;;;;;;;;;15.09;69.17;100193.25;4104323;28;20025;-68
2023/04/23 04:07:46;;;;;;;;;;;;;;;15.06;68.97;100197.25;4104655;28;20021;-68
2023/04/23 04:09:49;;;;;;;;;;;;;;;15.02;68.70;100206.91;4087651;28;20018;-68
2023/04/23 04:11:51;;;;;;;;;;;;;;;15.01;68.58;100205.22;4087801;28;20037;-68
2023/04/23 04:13:56;;;;;;;;;;;;;;;14.98;68.38;100211.09;4088992;28;20017;-68
2023/04/23 04:15:58;;;;;;;;;;;;;;;14.93;68.51;100208.22;4105924;28;20017;-68
2023/04/23 04:18:00;;;;;;;;;;;;;;;14.93;68.83;100216.38;4107896;28;20021;-68
2023/04/23 04:20:05;;;;;;;;;;;;;;;14.92;69.12;100220.13;4104958;28;20041;-67
2023/04/23 04:22:09;;;;;;;;;;;;;;;14.88;68.51;100208.88;4090541;29;20385;-68
2023/04/23 04:24:11;;;;;;;;;;;;;;;14.85;68.65;100203.03;4074463;29;20536;-68
2023/04/23 04:26:14;;;;;;;;;;;;;;;14.84;68.18;100202.19;4105676;28;20025;-68
2023/04/23 04:28:16;;;;;;;;;;;;;;;14.85;68.22;100197.59;4107259;28;20448;-69
2023/04/23 04:30:18;;;;;;;;;;;;;;;14.90;68.09;100203.22;4106323;28;20025;-68
2023/04/23 04:32:22;;;;;;;;;;;;;;;14.91;68.27;100208.44;4106258;28;20574;-68
2023/04/23 04:34:24;;;;;;;;;;;;;;;14.89;68.65;100207.84;4107418;28;20025;-68
2023/04/23 04:36:27;;;;;;;;;;;;;;;14.89;68.60;100201.53;4089791;29;19926;-68
2023/04/23 04:38:36;;;;;;;;;;;;;;;14.89;68.83;100207.84;4107232;28;20022;-67
2023/04/23 04:40:38;;;;;;;;;;;;;;;14.92;68.95;100211.97;4107033;28;20629;-68
2023/04/23 04:42:41;;;;;;;;;;;;;;;14.91;69.13;100211.16;4106771;28;20396;-68
2023/04/23 04:44:43;;;;;;;;;;;;;;;14.85;69.36;100203.88;4107207;28;20025;-68
2023/04/23 04:46:46;;;;;;;;;;;;;;;14.91;68.92;100205.72;4107416;28;20025;-69
2023/04/23 04:48:48;;;;;;;;;;;;;;;14.90;69.19;100203.22;4074245;29;19927;-68
2023/04/23 04:50:51;;;;;;;;;;;;;;;14.94;69.24;100212.63;4106002;28;20061;-69
2023/04/23 04:52:53;;;;;;;;;;;;;;;14.92;69.15;100212.84;4087779;29;20029;-68
2023/04/23 04:54:56;;;;;;;;;;;;;;;14.93;68.86;100219.09;4090133;29;19927;-69
2023/04/23 04:56:58;;;;;;;;;;;;;;;14.96;69.02;100224.09;4103847;28;20017;-68
2023/04/23 04:59:00;;;;;;;;;;;;;;;14.98;69.48;100215.72;4087448;29;20437;-68
2023/04/23 05:01:04;;;;;;;;;;;;;;;15.00;69.66;100216.31;4105419;28;20041;-68
2023/04/23 05:03:06;;;;;;;;;;;;;;;15.02;69.50;100227.84;4104512;28;20425;-69
2023/04/23 05:05:09;;;;;;;;;;;;;;;15.02;69.61;100217.78;4103397;28;20084;-69
2023/04/23 05:07:11;;;;;;;;;;;;;;;15.05;69.85;100221.97;4100840;28;20361;-68
2023/04/23 05:09:13;;;;;;;;;;;;;;;15.05;69.81;100222.78;4103643;28;20017;-67
2023/04/23 05:11:16;;;;;;;;;;;;;;;15.07;70.37;100219.84;4104242;28;20044;-68
2023/04/23 05:13:21;;;;;;;;;;;;;;;15.08;70.20;100224.25;4103796;28;20465;-68
2023/04/23 05:15:26;;;;;;;;;;;;;;;15.07;70.68;100226.09;4104155;28;19938;-69
2023/04/23 05:17:32;;;;;;;;;;;;;;;15.08;70.77;100227.78;4072887;29;19994;-68
2023/04/23 05:19:34;;;;;;;;;;;;;;;15.07;70.59;100220.66;4087849;29;19926;-68
2023/04/23 05:21:36;;;;;;;;;;;;;;;15.09;71.06;100226.75;4105466;28;20020;-69
2023/04/23 05:23:40;;;;;;;;;;;;;;;15.10;71.17;100220.22;4105797;28;19977;-68
2023/04/23 05:25:42;;;;;;;;;;;;;;;15.09;71.45;100226.75;4105902;28;20049;-68
2023/04/23 05:27:45;;;;;;;;;;;;;;;15.08;71.40;100229.69;4105534;28;19930;-68
2023/04/23 05:29:47;;;;;;;;;;;;;;;15.07;71.91;100228.00;4104313;28;20077;-68
2023/04/23 05:31:50;;;;;;;;;;;;;;;15.04;72.44;100223.81;4104747;28;20013;-68
2023/04/23 05:33:53;;;;;;;;;;;;;;;15.05;72.81;100230.13;4104853;28;20026;-68
2023/04/23 05:35:56;;;;;;;;;;;;;;;15.06;72.81;100229.91;4105422;28;20020;-67
2023/04/23 05:38:01;;;;;;;;;;;;;;;15.10;72.91;100230.28;4105441;28;19931;-67
2023/04/23 05:40:05;;;;;;;;;;;;;;;15.13;72.72;100233.41;4090458;28;20061;-68
2023/04/23 05:42:07;;;;;;;;;;;;;;;15.14;73.36;100231.53;4104926;28;20029;-68
2023/04/23 05:44:11;;;;;;;;;;;;;;;15.12;73.31;100231.75;4106415;28;20397;-68
2023/04/23 05:46:16;;;;;;;;;;;;;;;15.13;73.47;100232.56;4106069;28;19926;-68
2023/04/23 05:48:18;;;;;;;;;;;;;;;15.18;73.34;100232.75;4106160;28;20029;-68
2023/04/23 05:50:20;;;;;;;;;;;;;;;15.22;73.04;100233.13;4105911;28;20042;-67
2023/04/23 05:52:23;;;;;;;;;;;;;;;15.22;73.51;100231.25;4105916;28;20024;-68
2023/04/23 05:54:27;;;;;;;;;;;;;;;15.23;73.41;100237.53;4106310;28;20353;-68
2023/04/23 05:56:29;;;;;;;;;;;;;;;15.24;73.62;100233.75;4104968;28;20021;-68
2023/04/23 05:58:32;;;;;;;;;;;;;;;15.19;74.13;100237.13;4087981;29;20029;-68
2023/04/23 06:00:36;;;;;;;;;;;;;;;15.17;74.82;100246.56;4105758;28;20033;-67
2023/04/23 06:02:41;;;;;;;;;;;;;;;15.17;74.75;100239.22;4106017;28;20407;-67
2023/04/23 06:04:43;;;;;;;;;;;;;;;15.19;74.91;100239.00;4106693;28;19937;-66
2023/04/23 06:06:46;;;;;;;;;;;;;;;15.19;75.15;100241.72;4106291;28;20030;-66
2023/04/23 06:08:49;;;;;;;;;;;;;;;15.17;75.01;100241.94;4106130;28;20009;-68
2023/04/23 06:10:52;;;;;;;;;;;;;;;15.16;75.54;100234.00;4088111;28;20045;-68
2023/04/23 06:12:54;;;;;;;;;;;;;;;15.14;76.07;100240.50;4106418;28;20013;-68
2023/04/23 06:14:57;;;;;;;;;;;;;;;15.16;76.35;100237.56;4105151;28;20022;-68
2023/04/23 06:17:01;;;;;;;;;;;;;;;15.17;76.48;100235.69;4105964;28;20036;-68
2023/04/23 06:19:06;;;;;;;;;;;;;;;15.18;76.59;100238.19;4105896;28;19926;-68
2023/04/23 06:21:13;;;;;;;;;;;;;;;15.17;77.03;100239.22;4105916;28;20005;-69
2023/04/23 06:23:15;;;;;;;;;;;;;;;15.18;77.57;100240.06;4103923;28;20036;-68
2023/04/23 06:25:17;;;;;;;;;;;;;;;15.19;77.97;100239.84;4105574;28;20476;-68
2023/04/23 06:27:19;;;;;;;;;;;;;;;15.23;77.80;100237.53;4104080;28;20069;-68
2023/04/23 06:29:31;;;;;;;;;;;;;;;15.24;78.01;100237.31;4072516;29;20042;-68
2023/04/23 06:31:40;;;;;;;;;;;;;;;15.25;78.24;100238.13;4071381;29;20022;-68
2023/04/23 06:33:44;;;;;;;;;;;;;;;15.26;78.48;100243.34;4104327;28;20018;-67
2023/04/23 06:35:46;;;;;;;;;;;;;;;15.27;78.48;100238.75;4105006;28;20370;-68
2023/04/23 06:37:51;;;;;;;;;;;;;;;15.29;78.41;100239.34;4104380;28;20107;-66
2023/04/23 06:39:53;;;;;;;;;;;;;;;15.29;78.61;100239.34;4104352;28;20455;-67
2023/04/23 06:41:56;;;;;;;;;;;;;;;15.31;78.95;100239.97;4071665;29;20030;-67
2023/04/23 06:44:09;;;;;;;;;;;;;;;15.35;78.74;100240.38;4089844;28;20021;-67
2023/04/23 06:46:15;;;;;;;;;;;;;;;15.38;78.62;100246.19;4104864;28;19931;-67
2023/04/23 06:48:17;;;;;;;;;;;;;;;15.40;78.96;100245.97;4104724;28;20014;-67
2023/04/23 06:50:21;;;;;;;;;;;;;;;15.38;78.87;100246.19;4104993;28;20017;-67
2023/04/23 06:52:23;;;;;;;;;;;;;;;15.37;78.83;100247.25;4105613;28;20017;-67
2023/04/23 06:54:25;;;;;;;;;;;;;;;15.40;78.78;100245.97;4086936;29;20120;-67
2023/04/23 06:56:27;;;;;;;;;;;;;;;15.46;78.40;100250.53;4105537;28;20009;-67
2023/04/23 06:58:31;;;;;;;;;;;;;;;15.51;78.50;100247.97;4105944;28;20061;-67
2023/04/23 07:00:33;;;;;;;;;;;;;;;15.55;78.41;100253.81;4105336;28;20020;-68
2023/04/23 07:02:37;;;;;;;;;;;;;;;15.56;77.80;100253.59;4088607;29;20022;-67
2023/04/23 07:04:40;;;;;;;;;;;;;;;15.60;76.96;100252.09;4104499;28;20425;-68
2023/04/23 07:06:43;;;;;;;;;;;;;;;15.58;77.27;100254.22;4105810;28;19927;-68
2023/04/23 07:08:45;;;;;;;;;;;;;;;15.57;77.18;100254.44;4106173;28;20013;-68
2023/04/23 07:10:47;;;;;;;;;;;;;;;15.57;77.12;100263.44;4105024;28;20026;-68
2023/04/23 07:12:51;;;;;;;;;;;;;;;15.61;76.61;100252.91;4104302;28;20565;-68
2023/04/23 07:14:53;;;;;;;;;;;;;;;15.61;76.16;100255.63;4104240;28;20487;-68
2023/04/23 07:16:55;;;;;;;;;;;;;;;15.59;76.66;100258.59;4104110;28;20958;-67
2023/04/23 07:18:57;;;;;;;;;;;;;;;15.59;76.93;100261.31;4104584;28;20013;-67
2023/04/23 07:20:59;;;;;;;;;;;;;;;15.58;77.33;100261.53;4106057;28;20028;-68
2023/04/23 07:23:03;;;;;;;;;;;;;;;15.58;77.40;100269.69;4104452;28;20476;-69
2023/04/23 07:25:07;;;;;;;;;;;;;;;15.61;77.35;100274.69;4105299;28;20029;-69
2023/04/23 07:27:09;;;;;;;;;;;;;;;15.61;77.52;100267.38;4073270;29;19927;-69
2023/04/23 07:29:12;;;;;;;;;;;;;;;15.63;76.89;100267.16;4088052;28;19930;-69
2023/04/23 07:31:15;;;;;;;;;;;;;;;15.62;77.37;100268.22;4087032;29;20010;-68
2023/04/23 07:33:17;;;;;;;;;;;;;;;15.60;77.76;100268.44;4103587;28;20030;-68
2023/04/23 07:35:19;;;;;;;;;;;;;;;15.62;77.81;100279.09;4103148;28;20013;-68
2023/04/23 07:37:21;;;;;;;;;;;;;;;15.62;77.34;100273.66;4085993;29;20030;-68
2023/04/23 07:39:24;;;;;;;;;;;;;;;15.60;77.84;100279.31;4103730;28;20469;-68
2023/04/23 07:41:26;;;;;;;;;;;;;;;15.59;78.54;100274.09;4102998;28;20393;-67
2023/04/23 07:43:29;;;;;;;;;;;;;;;15.59;78.85;100276.81;4103487;28;20049;-67
2023/04/23 07:45:30;;;;;;;;;;;;;;;15.58;79.20;100277.84;4103630;28;20028;-67
2023/04/23 07:47:33;;;;;;;;;;;;;;;15.54;79.29;100274.75;4103546;28;19934;-67
2023/04/23 07:49:35;;;;;;;;;;;;;;;15.47;79.84;100276.72;4104521;28;20024;-67
2023/04/23 07:51:37;;;;;;;;;;;;;;;15.45;79.86;100276.94;4077059;29;20016;-68
2023/04/23 07:53:39;;;;;;;;;;;;;;;15.42;80.30;100271.94;4075464;29;20030;-68
2023/04/23 07:55:42;;;;;;;;;;;;;;;15.42;80.43;100277.38;4070639;29;20029;-67
2023/04/23 07:57:44;;;;;;;;;;;;;;;15.40;80.52;100281.34;4077399;29;20029;-68
2023/04/23 07:59:46;;;;;;;;;;;;;;;15.37;81.13;100276.34;4075785;29;20038;-68
2023/04/23 08:01:48;;;;;;;;;;;;;;;15.35;81.35;100282.00;4075128;29;20022;-68
2023/04/23 08:03:50;;;;;;;;;;;;;;;15.32;81.73;100282.44;4075376;29;20003;-68
2023/04/23 08:05:53;;;;;;;;;;;;;;;15.27;82.47;100276.84;4055421;29;20023;-67
2023/04/23 08:07:55;;;;;;;;;;;;;;;15.23;83.00;100279.16;4074448;29;19962;-67
2023/04/23 08:10:01;;;;;;;;;;;;;;;15.24;83.32;100280.81;4076280;29;20017;-68
2023/04/23 08:12:05;;;;;;;;;;;;;;;15.26;83.20;100284.16;4059097;29;20030;-68
2023/04/23 08:14:08;;;;;;;;;;;;;;;15.29;82.87;100280.16;4055007;29;20038;-67
2023/04/23 08:16:10;;;;;;;;;;;;;;;15.26;83.13;100283.31;4078174;29;20055;-68
2023/04/23 08:18:12;;;;;;;;;;;;;;;15.23;83.27;100276.44;4076612;29;20415;-68
2023/04/23 08:20:14;;;;;;;;;;;;;;;15.23;83.29;100278.31;4058996;29;20481;-68
2023/04/23 08:22:16;;;;;;;;;;;;;;;15.22;83.28;100279.38;4076864;29;20013;-68
2023/04/23 08:24:18;;;;;;;;;;;;;;;15.22;83.21;100273.94;4059855;29;19987;-68
2023/04/23 08:26:20;;;;;;;;;;;;;;;15.22;83.23;100271.22;4076987;29;20038;-68
2023/04/23 08:28:23;;;;;;;;;;;;;;;15.20;83.19;100278.75;4058316;29;19972;-68
2023/04/23 08:30:25;;;;;;;;;;;;;;;15.20;84.10;100276.03;4076948;29;20018;-68
2023/04/23 08:32:29;;;;;;;;;;;;;;;15.19;84.32;100280.66;4075152;29;20437;-68
2023/04/23 08:34:32;;;;;;;;;;;;;;;15.25;84.20;100277.06;4070056;29;20026;-68
2023/04/23 08:36:35;;;;;;;;;;;;;;;15.29;84.13;100277.44;4076378;29;20069;-68
2023/04/23 08:38:37;;;;;;;;;;;;;;;15.29;84.20;100270.09;4076347;29;20481;-68
2023/04/23 08:40:40;;;;;;;;;;;;;;;15.29;84.49;100272.84;4059182;29;19932;-67
2023/04/23 08:42:48;;;;;;;;;;;;;;;15.28;84.22;100275.78;4076400;29;20018;-67
2023/04/23 08:44:53;;;;;;;;;;;;;;;15.25;84.22;100277.06;4065444;29;20025;-68
2023/04/23 08:46:56;;;;;;;;;;;;;;;15.24;84.37;100274.56;4075705;29;20040;-68
2023/04/23 08:48:59;;;;;;;;;;;;;;;15.25;84.99;100279.78;4075181;29;19978;-68
2023/04/23 08:51:01;;;;;;;;;;;;;;;15.27;84.72;100282.28;4094518;28;20021;-68
2023/04/23 08:53:05;;;;;;;;;;;;;;;15.31;84.68;100289.78;4084973;29;20017;-67
2023/04/23 08:55:09;;;;;;;;;;;;;;;15.36;83.93;100282.84;4103830;28;20371;-68
2023/04/23 08:57:11;;;;;;;;;;;;;;;15.40;83.98;100281.34;4072702;29;19955;-67
2023/04/23 08:59:16;;;;;;;;;;;;;;;15.44;83.20;100286.13;4104087;28;20921;-67
2023/04/23 09:01:20;;;;;;;;;;;;;;;15.47;82.96;100285.69;4106666;28;20508;-67
2023/04/23 09:03:23;;;;;;;;;;;;;;;15.50;83.03;100287.13;4075120;29;20030;-67
2023/04/23 09:05:25;;;;;;;;;;;;;;;15.50;82.74;100292.56;4074691;29;20025;-66
2023/04/23 09:07:27;;;;;;;;;;;;;;;15.49;83.46;100293.66;4107660;28;20017;-67
2023/04/23 09:09:31;;;;;;;;;;;;;;;15.44;83.27;100288.03;4106315;28;19974;-67
2023/04/23 09:11:35;;;;;;;;;;;;;;;15.47;83.26;100285.69;4107436;28;20485;-67
2023/04/23 09:13:40;;;;;;;;;;;;;;;15.52;83.24;100289.63;4108402;28;20359;-68
2023/04/23 09:15:43;;;;;;;;;;;;;;;15.55;82.98;100284.59;4107834;28;20021;-68
2023/04/23 09:17:48;;;;;;;;;;;;;;;15.61;82.63;100296.47;4090751;29;20017;-67
2023/04/23 09:19:50;;;;;;;;;;;;;;;15.61;82.60;100291.88;4108177;28;20024;-68
2023/04/23 09:21:53;;;;;;;;;;;;;;;15.62;81.93;100282.63;4108226;28;20456;-68
2023/04/23 09:23:59;;;;;;;;;;;;;;;15.67;81.22;100276.53;4107702;28;20046;-68
2023/04/23 09:26:04;;;;;;;;;;;;;;;15.69;81.27;100279.88;4107099;28;20061;-67
2023/04/23 09:28:07;;;;;;;;;;;;;;;15.72;81.24;100293.06;4107232;28;20033;-67
2023/04/23 09:30:10;;;;;;;;;;;;;;;15.74;80.77;100290.13;4105926;28;19934;-67
2023/04/23 09:32:12;;;;;;;;;;;;;;;15.77;80.31;100290.53;4108019;28;20021;-66
2023/04/23 09:34:16;;;;;;;;;;;;;;;15.82;80.09;100300.75;4107643;28;20013;-66
2023/04/23 09:36:20;;;;;;;;;;;;;;;15.83;79.80;100305.13;4107899;28;20021;-66
2023/04/23 09:38:22;;;;;;;;;;;;;;;15.80;80.08;100300.97;4107282;28;20017;-65
2023/04/23 09:40:27;;;;;;;;;;;;;;;15.80;79.82;100295.53;4089961;29;20024;-67
2023/04/23 09:42:29;;;;;;;;;;;;;;;15.82;79.32;100300.75;4104440;28;20053;-67
2023/04/23 09:44:31;;;;;;;;;;;;;;;15.79;79.19;100290.31;4105930;28;20022;-68
2023/04/23 09:46:34;;;;;;;;;;;;;;;15.78;79.33;100305.81;4107284;28;20032;-69
2023/04/23 09:48:40;;;;;;;;;;;;;;;15.71;80.05;100307.72;4107386;28;20492;-68
2023/04/23 09:50:44;;;;;;;;;;;;;;;15.62;80.89;100300.88;4106255;28;19936;-69
2023/04/23 09:52:53;;;;;;;;;;;;;;;15.57;81.45;100301.53;4107077;28;20016;-66
2023/04/23 09:54:56;;;;;;;;;;;;;;;15.54;81.97;100310.13;4108177;28;20021;-68
2023/04/23 09:57:00;;;;;;;;;;;;;;;15.52;82.18;100308.69;4108016;28;20017;-66
2023/04/23 09:59:02;;;;;;;;;;;;;;;15.52;81.56;100314.13;4106823;28;20024;-66
2023/04/23 10:01:08;;;;;;;;;;;;;;;15.53;80.94;100310.34;4106975;28;20009;-67
2023/04/23 10:03:10;;;;;;;;;;;;;;;15.48;80.40;100314.56;4105854;28;20021;-66
2023/04/23 10:05:14;;;;;;;;;;;;;;;15.48;80.49;100330.88;4107015;28;20021;-67
2023/04/23 10:07:17;;;;;;;;;;;;;;;15.47;79.76;100331.13;4106855;28;20020;-68
2023/04/23 10:09:23;;;;;;;;;;;;;;;15.41;79.81;100332.84;4106794;28;20457;-67
2023/04/23 10:11:25;;;;;;;;;;;;;;;15.36;80.12;100332.66;4107708;28;19938;-67
2023/04/23 10:13:27;;;;;;;;;;;;;;;15.34;80.28;100332.03;4105818;28;19933;-68
2023/04/23 10:15:30;;;;;;;;;;;;;;;15.36;80.37;100329.94;4089848;29;20017;-67
2023/04/23 10:17:32;;;;;;;;;;;;;;;15.34;80.20;100337.47;4090895;28;20025;-67
2023/04/23 10:19:34;;;;;;;;;;;;;;;15.33;80.31;100341.28;4088545;29;20029;-67
2023/04/23 10:21:36;;;;;;;;;;;;;;;15.33;80.05;100341.28;4103787;28;20021;-68
2023/04/23 10:23:40;;;;;;;;;;;;;;;15.32;80.31;100347.75;4106647;28;20013;-67
2023/04/23 10:25:42;;;;;;;;;;;;;;;15.32;80.19;100348.56;4106672;28;20098;-68
2023/04/23 10:27:45;;;;;;;;;;;;;;;15.29;80.11;100346.28;4074818;29;20037;-68
2023/04/23 10:29:47;;;;;;;;;;;;;;;15.29;80.04;100331.88;4105966;28;20028;-68
2023/04/23 10:31:49;;;;;;;;;;;;;;;15.29;80.31;100331.88;4107036;28;20018;-68